Time;durP1;ratioP1;P1;durP2;ratioP2;P2;SDS_P1;SDS_P2;PMS_P1;PMS_P2;Temp;Humidity;BMP_temperature;BMP_pressure;BME280_temperature;BME280_humidity;BME280_pressure;Samples;Min_cycle;Max_cycle;Signal;HPM_P1;HPM_P2
2021/12/30 14:23:29;;;;;;;19.42;4.90;;;-1.90;99.90;;;;;;5113173;27;20353;-85
2021/12/30 14:25:55;;;;;;;11.65;4.40;;;-1.90;99.90;;;;;;5112073;28;20020;-85
2021/12/30 14:28:26;;;;;;;9.00;4.20;;;-1.80;99.90;;;;;;5110601;28;20537;-85
2021/12/30 14:30:55;;;;;;;9.90;3.38;;;-1.80;99.90;;;;;;5110657;28;20031;-85
2021/12/30 14:33:28;;;;;;;13.73;4.30;;;-1.80;99.90;;;;;;5109160;28;20470;-84
2021/12/30 14:36:08;;;;;;;18.20;5.00;;;-1.80;99.90;;;;;;5105548;28;20379;-84
2021/12/30 14:38:34;;;;;;;16.55;5.80;;;-1.70;99.90;;;;;;5112990;28;20059;-86
2021/12/30 14:41:21;;;;;;;18.27;5.70;;;-1.70;99.90;;;;;;5100529;28;20012;-87
2021/12/30 14:44:05;;;;;;;15.55;5.05;;;-1.60;99.90;;;;;;5101089;28;20032;-85
2021/12/30 14:46:32;;;;;;;22.17;5.60;;;-1.50;99.90;;;;;;5107923;28;20482;-85
2021/12/30 14:49:18;;;;;;;28.45;7.85;;;-1.50;99.90;;;;;;5093218;28;20029;-85
2021/12/30 14:51:44;;;;;;;25.42;6.47;;;-1.40;99.90;;;;;;5092194;28;20081;-88
2021/12/30 14:54:13;;;;;;;29.52;8.18;;;-1.40;99.90;;;;;;5103225;28;20024;-85
2021/12/30 14:56:42;;;;;;;20.48;6.15;;;-1.30;99.90;;;;;;5110029;28;20028;-86
2021/12/30 14:59:09;;;;;;;12.57;5.18;;;-1.20;99.90;;;;;;5110208;28;20505;-84
2021/12/30 15:01:36;;;;;;;22.27;7.10;;;-1.20;99.90;;;;;;5110068;28;20062;-84
2021/12/30 15:04:03;;;;;;;28.70;7.28;;;-1.10;99.90;;;;;;5111078;28;20069;-84
2021/12/30 15:06:29;;;;;;;20.23;5.88;;;-1.10;99.90;;;;;;5111114;28;20416;-84
2021/12/30 15:08:56;;;;;;;19.80;4.53;;;-1.00;99.90;;;;;;5109767;28;20020;-84
2021/12/30 15:11:24;;;;;;;10.57;4.22;;;-1.00;99.90;;;;;;5109657;28;20489;-84
2021/12/30 15:13:50;;;;;;;14.35;5.03;;;-0.90;99.90;;;;;;5098605;28;20035;-85
2021/12/30 15:16:17;;;;;;;12.13;4.75;;;-0.90;99.90;;;;;;5109767;28;20103;-85
2021/12/30 15:18:43;;;;;;;17.55;5.05;;;-0.80;99.90;;;;;;5113488;28;20389;-85
2021/12/30 15:21:09;;;;;;;12.63;3.75;;;-0.80;99.90;;;;;;5109456;28;20028;-86
2021/12/30 15:23:35;;;;;;;14.45;3.88;;;-0.70;99.90;;;;;;5109922;28;20024;-86
2021/12/30 15:26:02;;;;;;;17.50;6.07;;;-0.70;99.90;;;;;;5110853;28;20493;-85
2021/12/30 15:28:28;;;;;;;33.17;8.07;;;-0.70;99.90;;;;;;5108877;28;20024;-85
2021/12/30 15:30:54;;;;;;;21.70;5.20;;;-0.70;99.90;;;;;;5109244;28;20399;-85
2021/12/30 15:33:21;;;;;;;22.55;5.18;;;-0.60;99.90;;;;;;5103484;28;20111;-85
2021/12/30 15:35:49;;;;;;;20.17;4.82;;;-0.60;99.90;;;;;;5096910;28;20466;-85
2021/12/30 15:38:16;;;;;;;16.65;5.22;;;-0.60;99.90;;;;;;5095421;28;20436;-85
2021/12/30 15:40:44;;;;;;;18.52;4.07;;;-0.60;99.90;;;;;;5095636;28;20032;-85
2021/12/30 15:43:10;;;;;;;12.68;3.90;;;-0.60;99.90;;;;;;5096943;28;20063;-85
2021/12/30 15:45:36;;;;;;;12.88;3.65;;;-0.60;99.90;;;;;;5095649;28;20020;-85
2021/12/30 15:48:03;;;;;;;22.17;4.88;;;-0.60;99.90;;;;;;5095536;28;20070;-85
2021/12/30 15:50:29;;;;;;;20.15;5.85;;;-0.60;99.90;;;;;;5095502;28;20031;-85
2021/12/30 15:52:58;;;;;;;21.58;6.45;;;-0.60;99.90;;;;;;5095376;28;20046;-86
2021/12/30 15:55:26;;;;;;;22.17;5.63;;;-0.60;99.90;;;;;;5095488;28;20508;-85
2021/12/30 15:57:53;;;;;;;27.40;6.18;;;-0.50;99.90;;;;;;5095226;28;20024;-84
2021/12/30 16:00:22;;;;;;;16.98;5.50;;;-0.50;99.90;;;;;;5095409;28;20123;-85
2021/12/30 16:03:10;;;;;;;22.52;5.10;;;-0.50;99.90;;;;;;5095167;28;20024;-85
2021/12/30 16:05:36;;;;;;;15.55;4.75;;;-0.50;99.90;;;;;;5095229;28;20031;-85
2021/12/30 16:08:02;;;;;;;16.50;4.38;;;-0.50;99.90;;;;;;5095910;28;20420;-85
2021/12/30 16:10:28;;;;;;;11.75;4.00;;;-0.50;99.90;;;;;;5095008;28;20091;-85
2021/12/30 16:12:55;;;;;;;10.07;3.50;;;-0.50;99.90;;;;;;5095871;28;20042;-85
2021/12/30 16:15:23;;;;;;;6.90;1.92;;;-0.50;99.90;;;;;;5094953;28;20107;-85
2021/12/30 16:17:50;;;;;;;18.65;7.22;;;-0.50;99.90;;;;;;5096075;28;20030;-84
2021/12/30 16:20:16;;;;;;;11.10;3.55;;;-0.50;99.90;;;;;;5095158;28;20486;-85
2021/12/30 16:22:45;;;;;;;14.32;4.28;;;-0.50;99.90;;;;;;5094674;28;20048;-84
2021/12/30 16:25:11;;;;;;;18.77;4.47;;;-0.50;99.90;;;;;;5094804;28;20032;-85
2021/12/30 16:27:37;;;;;;;16.30;4.90;;;-0.50;99.90;;;;;;5094681;28;20020;-84
2021/12/30 16:30:12;;;;;;;30.33;5.43;;;-0.50;99.90;;;;;;5099936;28;20027;-84
2021/12/30 16:32:39;;;;;;;18.70;4.47;;;-0.50;99.90;;;;;;5112438;28;20093;-84
2021/12/30 16:35:05;;;;;;;20.73;5.55;;;-0.50;99.90;;;;;;5094600;28;20181;-85
2021/12/30 16:37:32;;;;;;;15.23;4.65;;;-0.50;99.90;;;;;;5095662;28;20028;-85
2021/12/30 16:39:58;;;;;;;8.82;4.05;;;-0.50;99.90;;;;;;5094228;28;20071;-85
2021/12/30 16:42:24;;;;;;;15.38;3.83;;;-0.50;99.90;;;;;;5094199;28;20031;-84
2021/12/30 16:44:50;;;;;;;13.73;4.07;;;-0.50;99.90;;;;;;5093471;28;20024;-85
2021/12/30 16:47:17;;;;;;;19.38;5.18;;;-0.50;99.90;;;;;;5095589;28;20377;-85
2021/12/30 16:49:43;;;;;;;24.13;6.18;;;-0.50;99.90;;;;;;5094123;28;20032;-84
2021/12/30 16:52:09;;;;;;;17.60;4.93;;;-0.60;99.90;;;;;;5095413;28;20028;-85
2021/12/30 16:54:35;;;;;;;26.70;6.25;;;-0.50;99.90;;;;;;5095146;28;20024;-85
2021/12/30 16:57:01;;;;;;;26.67;9.07;;;-0.50;99.90;;;;;;5094412;28;20073;-84
2021/12/30 16:59:27;;;;;;;29.80;7.65;;;-0.50;99.90;;;;;;5094128;28;20031;-85
2021/12/30 17:01:52;;;;;;;38.25;10.27;;;-0.50;99.90;;;;;;5093764;28;20028;-85
2021/12/30 17:04:19;;;;;;;33.30;8.65;;;-0.50;99.90;;;;;;5087043;28;20025;-84
2021/12/30 17:06:46;;;;;;;41.47;8.90;;;-0.50;99.90;;;;;;5075516;28;20078;-85
2021/12/30 17:09:12;;;;;;;27.70;9.23;;;-0.50;99.90;;;;;;5087570;28;20029;-86
2021/12/30 17:11:38;;;;;;;33.60;9.57;;;-0.50;99.90;;;;;;5074968;28;20031;-85
2021/12/30 17:14:04;;;;;;;30.23;8.90;;;-0.50;99.90;;;;;;5073305;28;20028;-85
2021/12/30 17:16:30;;;;;;;27.80;7.43;;;-0.50;99.90;;;;;;5074693;28;20076;-85
2021/12/30 17:18:57;;;;;;;21.90;7.10;;;-0.50;99.90;;;;;;5081097;28;20079;-84
2021/12/30 17:21:23;;;;;;;25.92;8.20;;;-0.50;99.90;;;;;;5090241;28;20049;-85
2021/12/30 17:23:49;;;;;;;17.30;6.47;;;-0.50;99.90;;;;;;5086640;28;20028;-85
2021/12/30 17:26:17;;;;;;;17.00;5.10;;;-0.50;99.90;;;;;;5094641;28;20024;-85
2021/12/30 17:28:43;;;;;;;29.05;6.78;;;-0.50;99.90;;;;;;5094018;28;20024;-85
2021/12/30 17:31:11;;;;;;;20.55;5.35;;;-0.50;99.90;;;;;;5094850;28;20020;-85
2021/12/30 17:33:37;;;;;;;20.73;7.63;;;-0.50;99.90;;;;;;5093497;28;20032;-85
2021/12/30 17:36:04;;;;;;;19.30;6.93;;;-0.50;99.90;;;;;;5093571;28;20073;-85
2021/12/30 17:38:30;;;;;;;20.77;6.95;;;-0.50;99.90;;;;;;5093502;28;20020;-85
2021/12/30 17:40:58;;;;;;;12.90;5.15;;;-0.50;99.90;;;;;;5093308;28;20020;-85
2021/12/30 17:43:24;;;;;;;19.63;6.03;;;-0.50;99.90;;;;;;5094324;28;20551;-85
2021/12/30 17:45:51;;;;;;;24.88;8.65;;;-0.50;99.90;;;;;;5094412;28;20470;-86
2021/12/30 17:48:18;;;;;;;31.08;9.43;;;-0.50;99.90;;;;;;5094488;28;20024;-86
2021/12/30 17:50:45;;;;;;;18.80;6.00;;;-0.50;99.90;;;;;;5094513;28;20028;-87
2021/12/30 17:53:11;;;;;;;16.83;5.85;;;-0.50;99.90;;;;;;5093303;28;20493;-86
2021/12/30 17:55:38;;;;;;;18.33;6.40;;;-0.50;99.90;;;;;;5094560;28;20020;-86
2021/12/30 17:58:07;;;;;;;12.77;4.88;;;-0.50;99.90;;;;;;5094776;28;20024;-86
2021/12/30 18:00:35;;;;;;;21.58;5.32;;;-0.50;99.90;;;;;;5094338;28;20497;-86
2021/12/30 18:03:02;;;;;;;25.40;6.53;;;-0.50;99.90;;;;;;5092966;28;20032;-86
2021/12/30 18:05:28;;;;;;;22.33;6.53;;;-0.50;99.90;;;;;;5094358;28;20023;-86
2021/12/30 18:07:55;;;;;;;14.70;4.57;;;-0.50;99.90;;;;;;5093518;28;20026;-86
2021/12/30 18:10:22;;;;;;;12.02;5.25;;;-0.50;99.90;;;;;;5094274;28;20012;-86
2021/12/30 18:12:48;;;;;;;18.90;5.15;;;-0.50;99.90;;;;;;5093128;28;20067;-86
2021/12/30 18:15:14;;;;;;;27.88;7.68;;;-0.50;99.90;;;;;;5093755;28;20058;-86
2021/12/30 18:17:39;;;;;;;25.85;7.72;;;-0.50;99.90;;;;;;5077699;28;20025;-86
2021/12/30 18:20:07;;;;;;;34.70;9.15;;;-0.50;99.90;;;;;;5072922;28;20033;-86
2021/12/30 18:22:34;;;;;;;22.90;6.72;;;-0.50;99.90;;;;;;5072723;28;20447;-86
2021/12/30 18:25:01;;;;;;;21.23;5.68;;;-0.50;99.90;;;;;;5072969;28;20137;-86
2021/12/30 18:27:30;;;;;;;27.35;6.60;;;-0.50;99.90;;;;;;5080397;28;20085;-86
2021/12/30 18:29:56;;;;;;;22.98;6.43;;;-0.50;99.90;;;;;;5094015;28;20024;-86
2021/12/30 18:32:21;;;;;;;19.13;5.22;;;-0.50;99.90;;;;;;5091915;28;20424;-86
2021/12/30 18:34:47;;;;;;;23.95;6.25;;;-0.50;99.90;;;;;;5093831;28;20024;-85
2021/12/30 18:37:13;;;;;;;17.75;5.70;;;-0.50;99.90;;;;;;5092858;28;20032;-86
2021/12/30 18:39:39;;;;;;;23.15;6.43;;;-0.50;99.90;;;;;;5093913;28;20027;-86
2021/12/30 18:42:07;;;;;;;17.05;5.03;;;-0.50;99.90;;;;;;5093857;28;20459;-86
2021/12/30 18:44:33;;;;;;;16.88;4.70;;;-0.50;99.90;;;;;;5083138;28;20198;-86
2021/12/30 18:47:00;;;;;;;17.80;4.95;;;-0.50;99.90;;;;;;5072649;28;20017;-86
2021/12/30 18:49:26;;;;;;;24.38;6.47;;;-0.50;99.90;;;;;;5077923;28;20466;-86
2021/12/30 18:51:52;;;;;;;23.50;7.03;;;-0.50;99.90;;;;;;5092312;28;20081;-86
2021/12/30 18:54:18;;;;;;;17.25;5.45;;;-0.50;99.90;;;;;;5082014;28;20047;-86
2021/12/30 18:56:46;;;;;;;19.48;5.28;;;-0.50;99.90;;;;;;5094151;28;20020;-86
2021/12/30 18:59:13;;;;;;;15.80;5.03;;;-0.50;99.90;;;;;;5093764;28;20382;-86
2021/12/30 19:01:39;;;;;;;18.08;5.70;;;-0.50;99.90;;;;;;5092556;28;20035;-86
2021/12/30 19:04:05;;;;;;;22.30;5.93;;;-0.40;99.90;;;;;;5093762;28;20012;-86
2021/12/30 19:06:31;;;;;;;15.18;4.03;;;-0.40;99.90;;;;;;5085626;28;20060;-86
2021/12/30 19:08:58;;;;;;;14.60;5.65;;;-0.50;99.90;;;;;;5095485;28;20020;-87
2021/12/30 19:11:23;;;;;;;24.35;6.25;;;-0.50;99.90;;;;;;5096474;28;20111;-87
2021/12/30 19:13:49;;;;;;;24.98;7.43;;;-0.50;99.90;;;;;;5097120;28;20056;-87
2021/12/30 19:16:15;;;;;;;38.35;8.35;;;-0.50;99.90;;;;;;5097654;28;20024;-87
2021/12/30 19:18:40;;;;;;;25.05;7.50;;;-0.50;99.90;;;;;;5094975;28;20024;-87
2021/12/30 19:21:10;;;;;;;21.95;7.63;;;-0.50;99.90;;;;;;5077665;28;20028;-87
2021/12/30 19:23:37;;;;;;;17.77;5.75;;;-0.50;99.90;;;;;;5097372;28;20069;-87
2021/12/30 19:26:04;;;;;;;18.60;6.45;;;-0.50;99.90;;;;;;5095529;28;20036;-87
2021/12/30 19:28:31;;;;;;;15.52;5.28;;;-0.50;99.90;;;;;;5096126;28;20027;-87
2021/12/30 19:30:57;;;;;;;32.95;7.93;;;-0.50;99.90;;;;;;5076836;28;20025;-87
2021/12/30 19:33:23;;;;;;;22.70;6.35;;;-0.50;99.90;;;;;;5096114;28;20028;-87
2021/12/30 19:35:51;;;;;;;25.02;7.63;;;-0.50;99.90;;;;;;5092412;28;20078;-87
2021/12/30 19:38:18;;;;;;;26.83;7.22;;;-0.60;99.90;;;;;;5085045;28;20031;-87
2021/12/30 19:40:44;;;;;;;31.15;10.13;;;-0.50;99.90;;;;;;5085607;28;20035;-87
2021/12/30 19:43:10;;;;;;;30.73;7.63;;;-0.50;99.90;;;;;;5097106;28;20108;-88
2021/12/30 19:45:38;;;;;;;23.17;7.38;;;-0.50;99.90;;;;;;5091494;28;20485;-87
2021/12/30 19:48:05;;;;;;;18.15;6.40;;;-0.50;99.90;;;;;;5075719;28;20032;-87
2021/12/30 19:50:33;;;;;;;25.95;8.10;;;-0.50;99.90;;;;;;5088041;28;20355;-87
2021/12/30 19:52:59;;;;;;;22.70;7.75;;;-0.50;99.90;;;;;;5083916;28;20127;-87
2021/12/30 19:55:25;;;;;;;30.45;7.45;;;-0.50;99.90;;;;;;5076541;28;20025;-87
2021/12/30 19:57:53;;;;;;;26.17;6.15;;;-0.50;99.90;;;;;;5082125;28;20490;-87
2021/12/30 20:00:22;;;;;;;21.88;6.18;;;-0.50;99.90;;;;;;5095642;28;20125;-87
2021/12/30 20:02:48;;;;;;;21.38;7.20;;;-0.50;99.90;;;;;;5076108;28;20035;-87
2021/12/30 20:05:14;;;;;;;31.15;8.30;;;-0.50;99.90;;;;;;5076458;28;20021;-87
2021/12/30 20:07:40;;;;;;;23.88;7.40;;;-0.50;99.90;;;;;;5076005;28;20067;-87
2021/12/30 20:10:08;;;;;;;22.08;6.82;;;-0.50;99.90;;;;;;5076543;28;20023;-87
2021/12/30 20:12:35;;;;;;;25.25;6.20;;;-0.60;99.90;;;;;;5076161;28;20497;-86
2021/12/30 20:15:04;;;;;;;18.48;5.93;;;-0.60;99.90;;;;;;5093417;28;20058;-87
2021/12/30 20:17:30;;;;;;;18.10;5.60;;;-0.50;99.90;;;;;;5096390;28;20031;-87
2021/12/30 20:19:56;;;;;;;24.08;7.28;;;-0.60;99.90;;;;;;5097153;28;20020;-87
2021/12/30 20:22:22;;;;;;;16.02;5.20;;;-0.60;99.90;;;;;;5086631;28;20102;-88
2021/12/30 20:24:48;;;;;;;20.35;6.82;;;-0.60;99.90;;;;;;5083937;28;20020;-87
2021/12/30 20:27:13;;;;;;;18.48;5.65;;;-0.60;99.90;;;;;;5095195;28;20470;-87
2021/12/30 20:29:39;;;;;;;25.05;6.95;;;-0.60;99.90;;;;;;5095217;28;20024;-87
2021/12/30 20:32:05;;;;;;;27.25;7.60;;;-0.60;99.90;;;;;;5077164;28;20032;-87
2021/12/30 20:34:34;;;;;;;28.02;7.40;;;-0.60;99.90;;;;;;5074906;28;20029;-87
2021/12/30 20:37:00;;;;;;;23.65;7.15;;;-0.60;99.90;;;;;;5075418;28;20025;-87
2021/12/30 20:39:26;;;;;;;25.00;6.65;;;-0.60;99.90;;;;;;5074700;28;20055;-87
2021/12/30 20:41:52;;;;;;;26.45;6.97;;;-0.60;99.90;;;;;;5075649;28;20021;-86
2021/12/30 20:44:20;;;;;;;28.13;7.57;;;-0.60;99.90;;;;;;5074736;28;20024;-86
2021/12/30 20:46:46;;;;;;;25.98;7.85;;;-0.60;99.90;;;;;;5075457;28;20020;-86
2021/12/30 20:49:12;;;;;;;34.17;10.45;;;-0.60;99.90;;;;;;5074515;28;20031;-86
2021/12/30 20:51:37;;;;;;;26.70;8.27;;;-0.60;99.90;;;;;;5074842;28;20040;-86
2021/12/30 20:54:06;;;;;;;39.17;10.40;;;-0.60;99.90;;;;;;5075464;28;20028;-86
2021/12/30 20:56:31;;;;;;;29.77;7.90;;;-0.60;99.90;;;;;;5074283;28;20403;-86
2021/12/30 20:58:57;;;;;;;20.23;6.60;;;-0.70;99.90;;;;;;5074157;28;20031;-87
2021/12/30 21:01:29;;;;;;;22.48;7.50;;;-0.70;99.90;;;;;;5075118;28;20032;-86
2021/12/30 21:03:57;;;;;;;21.45;6.63;;;-0.60;99.90;;;;;;5074013;28;20082;-87
2021/12/30 21:06:23;;;;;;;26.98;7.35;;;-0.70;99.90;;;;;;5074063;28;20028;-87
2021/12/30 21:08:48;;;;;;;16.00;6.60;;;-0.70;99.90;;;;;;5074056;28;20025;-87
2021/12/30 21:11:15;;;;;;;20.45;6.28;;;-0.70;99.90;;;;;;5074054;28;20375;-87
2021/12/30 21:13:41;;;;;;;23.35;6.50;;;-0.70;99.90;;;;;;5075365;28;20024;-86
2021/12/30 21:16:08;;;;;;;28.17;8.00;;;-0.70;99.90;;;;;;5074128;28;20025;-86
2021/12/30 21:18:35;;;;;;;18.60;6.25;;;-0.70;99.90;;;;;;5073875;28;20111;-87
2021/12/30 21:21:03;;;;;;;23.25;6.82;;;-0.70;99.90;;;;;;5073542;28;20119;-87
2021/12/30 21:23:31;;;;;;;23.25;6.85;;;-0.70;99.90;;;;;;5073748;28;20029;-86
2021/12/30 21:25:57;;;;;;;23.15;7.70;;;-0.70;99.90;;;;;;5073877;28;20442;-87
2021/12/30 21:28:23;;;;;;;19.75;7.25;;;-0.70;99.90;;;;;;5073564;28;20032;-86
2021/12/30 21:30:50;;;;;;;14.57;5.43;;;-0.70;99.90;;;;;;5074333;28;20135;-86
2021/12/30 21:33:17;;;;;;;19.45;5.93;;;-0.70;99.90;;;;;;5073519;28;20028;-87
2021/12/30 21:35:45;;;;;;;21.65;6.25;;;-0.70;99.90;;;;;;5073595;28;20032;-86
2021/12/30 21:38:11;;;;;;;22.17;8.10;;;-0.70;99.90;;;;;;5073996;28;20035;-86
2021/12/30 21:40:39;;;;;;;25.77;7.93;;;-0.80;99.90;;;;;;5073569;28;20025;-86
2021/12/30 21:43:05;;;;;;;26.25;9.20;;;-0.80;99.90;;;;;;5073473;28;20360;-87
2021/12/30 21:45:31;;;;;;;22.23;7.40;;;-0.70;99.90;;;;;;5074952;28;20031;-87
2021/12/30 21:47:57;;;;;;;20.63;7.28;;;-0.80;99.90;;;;;;5080503;28;20490;-87
2021/12/30 21:50:23;;;;;;;21.42;7.43;;;-0.80;99.90;;;;;;5093677;28;20062;-87
2021/12/30 21:52:49;;;;;;;28.65;8.38;;;-0.80;99.90;;;;;;5093815;28;20073;-87
2021/12/30 21:55:17;;;;;;;25.42;7.18;;;-0.80;99.90;;;;;;5093172;28;20032;-87
2021/12/30 21:57:44;;;;;;;27.10;6.80;;;-0.80;99.90;;;;;;5093656;28;20054;-87
2021/12/30 22:00:13;;;;;;;18.10;6.65;;;-0.80;99.90;;;;;;5093472;28;20051;-87
2021/12/30 22:02:40;;;;;;;18.85;7.35;;;-0.80;99.90;;;;;;5093105;28;20035;-87
2021/12/30 22:05:08;;;;;;;25.27;7.68;;;-0.80;99.90;;;;;;5076010;28;20036;-87
2021/12/30 22:07:34;;;;;;;20.77;7.28;;;-0.80;99.90;;;;;;5074291;28;20462;-86
2021/12/30 22:10:00;;;;;;;18.25;7.30;;;-0.80;99.90;;;;;;5073012;28;20033;-87
2021/12/30 22:12:26;;;;;;;22.48;6.10;;;-0.80;99.90;;;;;;5073182;28;20393;-87
2021/12/30 22:14:53;;;;;;;21.65;7.50;;;-0.80;99.90;;;;;;5073993;28;20166;-86
2021/12/30 22:17:18;;;;;;;22.02;7.25;;;-0.80;99.90;;;;;;5073045;28;20052;-87
2021/12/30 22:19:44;;;;;;;25.17;7.45;;;-0.80;99.90;;;;;;5074020;28;20090;-86
2021/12/30 22:22:10;;;;;;;25.02;8.07;;;-0.80;99.90;;;;;;5072729;28;20103;-86
2021/12/30 22:24:35;;;;;;;27.33;9.18;;;-0.90;99.90;;;;;;5072917;28;20021;-87
2021/12/30 22:27:01;;;;;;;27.30;8.48;;;-0.90;99.90;;;;;;5072995;28;20097;-86
2021/12/30 22:29:27;;;;;;;24.08;7.07;;;-0.90;99.90;;;;;;5072966;28;20025;-87
2021/12/30 22:31:54;;;;;;;18.50;6.55;;;-0.90;99.90;;;;;;5073045;28;20367;-87
2021/12/30 22:34:19;;;;;;;18.55;5.55;;;-0.90;99.90;;;;;;5073265;28;20494;-87
2021/12/30 22:36:46;;;;;;;13.70;5.28;;;-0.90;99.90;;;;;;5072952;28;20024;-87
2021/12/30 22:39:13;;;;;;;22.52;8.30;;;-0.90;99.90;;;;;;5074090;28;20413;-86
2021/12/30 22:41:40;;;;;;;18.50;6.47;;;-0.90;99.90;;;;;;5073016;28;20028;-86
2021/12/30 22:44:06;;;;;;;26.33;7.10;;;-0.90;99.90;;;;;;5074833;28;20421;-87
2021/12/30 22:46:32;;;;;;;17.75;6.18;;;-0.90;99.90;;;;;;5076778;28;20074;-87
2021/12/30 22:48:58;;;;;;;27.25;8.25;;;-0.90;99.90;;;;;;5090306;28;20032;-86
2021/12/30 22:51:23;;;;;;;21.85;6.85;;;-0.90;99.90;;;;;;5097002;28;20028;-86
2021/12/30 22:53:50;;;;;;;22.10;7.47;;;-0.90;99.90;;;;;;5098124;28;20074;-87
2021/12/30 22:56:16;;;;;;;18.75;6.68;;;-0.90;99.90;;;;;;5097184;28;20027;-86
2021/12/30 22:58:45;;;;;;;18.52;6.10;;;-0.90;99.90;;;;;;5096849;28;20024;-86
2021/12/30 23:01:14;;;;;;;22.55;6.65;;;-1.00;99.90;;;;;;5096856;28;20025;-86
2021/12/30 23:03:49;;;;;;;21.40;7.97;;;-1.00;99.90;;;;;;5083127;28;20024;-87
2021/12/30 23:06:19;;;;;;;17.33;6.15;;;-1.00;99.90;;;;;;5076340;28;20027;-86
2021/12/30 23:08:45;;;;;;;25.10;6.68;;;-1.00;99.90;;;;;;5076358;28;20016;-87
2021/12/30 23:11:12;;;;;;;22.58;6.57;;;-1.00;99.90;;;;;;5077406;28;20092;-87
2021/12/30 23:13:37;;;;;;;20.35;7.90;;;-1.00;99.90;;;;;;5077711;28;20020;-86
2021/12/30 23:16:05;;;;;;;21.48;6.85;;;-1.10;99.90;;;;;;5077006;28;20031;-85
2021/12/30 23:18:30;;;;;;;26.73;7.53;;;-1.00;99.90;;;;;;5091287;28;20055;-86
2021/12/30 23:20:57;;;;;;;22.48;6.15;;;-1.10;99.90;;;;;;5097291;28;20020;-86
2021/12/30 23:23:24;;;;;;;24.83;8.13;;;-1.10;99.90;;;;;;5097330;28;20024;-86
2021/12/30 23:25:50;;;;;;;33.45;9.30;;;-1.00;99.90;;;;;;5097344;28;20023;-86
2021/12/30 23:28:16;;;;;;;26.23;7.85;;;-1.00;99.90;;;;;;5097399;28;20012;-86
2021/12/30 23:30:43;;;;;;;17.80;6.38;;;-1.10;99.90;;;;;;5083472;28;20036;-86
2021/12/30 23:33:09;;;;;;;31.15;7.85;;;-1.10;99.90;;;;;;5075722;28;20021;-86
2021/12/30 23:35:35;;;;;;;26.63;7.07;;;-1.10;99.90;;;;;;5075802;28;20024;-86
2021/12/30 23:38:02;;;;;;;24.33;6.47;;;-1.10;99.90;;;;;;5077038;28;20475;-86
2021/12/30 23:40:28;;;;;;;22.17;6.95;;;-1.10;99.90;;;;;;5076876;28;20032;-86
2021/12/30 23:42:54;;;;;;;21.20;6.85;;;-1.10;99.90;;;;;;5075689;28;20071;-86
2021/12/30 23:45:20;;;;;;;25.77;7.70;;;-1.10;99.90;;;;;;5086338;28;20462;-86
2021/12/30 23:47:46;;;;;;;22.77;6.70;;;-1.10;99.90;;;;;;5097155;28;20035;-86
2021/12/30 23:50:12;;;;;;;19.80;6.70;;;-1.00;99.90;;;;;;5097074;28;20020;-86
2021/12/30 23:52:37;;;;;;;28.25;9.23;;;-1.10;99.90;;;;;;5095818;28;20077;-86
2021/12/30 23:55:05;;;;;;;23.00;6.80;;;-1.00;99.90;;;;;;5094638;28;20036;-86
2021/12/30 23:57:30;;;;;;;19.17;6.13;;;-1.00;99.90;;;;;;5096962;28;20027;-86
2021/12/30 23:59:56;;;;;;;24.95;7.50;;;-1.00;99.90;;;;;;5095581;28;20035;-86
